sensor_id;sensor_type;location;lat;lon;timestamp;P1;durP1;ratioP1;P2;durP2;ratioP2
50563;SDS011;36514;52.590;21.448;2023-05-24T00:03:32;1728.84;;;943.99;;
50563;SDS011;36514;52.590;21.448;2023-05-24T00:13:30;1639.83;;;935.43;;
50563;SDS011;36514;52.590;21.448;2023-05-24T00:23:28;1640.55;;;930.95;;
50563;SDS011;36514;52.590;21.448;2023-05-24T00:33:27;1598.77;;;912.71;;
50563;SDS011;36514;52.590;21.448;2023-05-24T00:43:27;1586.85;;;916.21;;
50563;SDS011;36514;52.590;21.448;2023-05-24T00:53:26;1591.73;;;902.35;;
50563;SDS011;36514;52.590;21.448;2023-05-24T01:03:25;1658.04;;;937.16;;
50563;SDS011;36514;52.590;21.448;2023-05-24T01:33:45;1532.85;;;882.79;;
50563;SDS011;36514;52.590;21.448;2023-05-24T01:44:03;1436.05;;;861.48;;
50563;SDS011;36514;52.590;21.448;2023-05-24T01:54:02;1633.68;;;921.41;;
50563;SDS011;36514;52.590;21.448;2023-05-24T02:04:01;1580.81;;;913.65;;
50563;SDS011;36514;52.590;21.448;2023-05-24T02:14:00;1512.78;;;867.80;;
50563;SDS011;36514;52.590;21.448;2023-05-24T02:23:59;1565.65;;;916.35;;
50563;SDS011;36514;52.590;21.448;2023-05-24T02:33:58;1559.26;;;904.35;;
50563;SDS011;36514;52.590;21.448;2023-05-24T02:43:56;1682.55;;;935.20;;
50563;SDS011;36514;52.590;21.448;2023-05-24T02:53:56;1769.01;;;940.49;;
50563;SDS011;36514;52.590;21.448;2023-05-24T03:03:55;1815.54;;;949.73;;
50563;SDS011;36514;52.590;21.448;2023-05-24T03:13:54;1476.65;;;795.17;;
50563;SDS011;36514;52.590;21.448;2023-05-24T03:23:54;1586.28;;;917.82;;
50563;SDS011;36514;52.590;21.448;2023-05-24T03:33:54;1677.89;;;923.09;;
50563;SDS011;36514;52.590;21.448;2023-05-24T03:43:55;1762.94;;;926.14;;
50563;SDS011;36514;52.590;21.448;2023-05-24T03:53:57;1685.65;;;939.25;;
50563;SDS011;36514;52.590;21.448;2023-05-24T04:03:57;1560.34;;;893.15;;
50563;SDS011;36514;52.590;21.448;2023-05-24T04:13:58;1521.15;;;876.50;;
50563;SDS011;36514;52.590;21.448;2023-05-24T04:23:59;1269.35;;;832.61;;
50563;SDS011;36514;52.590;21.448;2023-05-24T04:34:01;808.38;;;734.85;;
50563;SDS011;36514;52.590;21.448;2023-05-24T04:44:03;705.76;;;654.26;;
50563;SDS011;36514;52.590;21.448;2023-05-24T04:54:04;770.45;;;712.85;;
50563;SDS011;36514;52.590;21.448;2023-05-24T05:04:06;777.04;;;718.27;;
50563;SDS011;36514;52.590;21.448;2023-05-24T05:14:07;855.46;;;788.15;;
50563;SDS011;36514;52.590;21.448;2023-05-24T05:24:08;880.21;;;807.82;;
50563;SDS011;36514;52.590;21.448;2023-05-24T05:34:08;1007.76;;;915.65;;
50563;SDS011;36514;52.590;21.448;2023-05-24T05:44:07;990.06;;;902.54;;
50563;SDS011;36514;52.590;21.448;2023-05-24T05:54:05;1000.28;;;911.24;;
50563;SDS011;36514;52.590;21.448;2023-05-24T06:04:03;926.67;;;851.15;;
50563;SDS011;36514;52.590;21.448;2023-05-24T06:14:02;957.37;;;876.31;;
50563;SDS011;36514;52.590;21.448;2023-05-24T06:24:02;1014.99;;;922.02;;
50563;SDS011;36514;52.590;21.448;2023-05-24T06:34:01;1092.31;;;976.49;;
50563;SDS011;36514;52.590;21.448;2023-05-24T06:44:04;1125.39;;;958.14;;
50563;SDS011;36514;52.590;21.448;2023-05-24T06:54:09;1095.60;;;953.92;;
50563;SDS011;36514;52.590;21.448;2023-05-24T07:04:11;1009.01;;;920.20;;
50563;SDS011;36514;52.590;21.448;2023-05-24T07:14:34;977.25;;;885.87;;
50563;SDS011;36514;52.590;21.448;2023-05-24T07:24:45;1052.33;;;895.06;;
50563;SDS011;36514;52.590;21.448;2023-05-24T07:34:50;1084.00;;;940.46;;
50563;SDS011;36514;52.590;21.448;2023-05-24T07:44:48;1325.90;;;928.23;;
50563;SDS011;36514;52.590;21.448;2023-05-24T07:54:39;1159.78;;;950.10;;
50563;SDS011;36514;52.590;21.448;2023-05-24T08:04:44;1039.12;;;903.73;;
50563;SDS011;36514;52.590;21.448;2023-05-24T08:14:44;1279.48;;;950.30;;
50563;SDS011;36514;52.590;21.448;2023-05-24T08:24:40;1227.31;;;928.32;;
50563;SDS011;36514;52.590;21.448;2023-05-24T08:34:57;1404.05;;;938.44;;
50563;SDS011;36514;52.590;21.448;2023-05-24T08:45:17;1656.77;;;858.40;;
50563;SDS011;36514;52.590;21.448;2023-05-24T08:55:17;1791.79;;;927.85;;
50563;SDS011;36514;52.590;21.448;2023-05-24T09:05:18;1081.39;;;916.06;;
50563;SDS011;36514;52.590;21.448;2023-05-24T09:15:30;977.15;;;836.60;;
50563;SDS011;36514;52.590;21.448;2023-05-24T09:25:42;1076.08;;;879.81;;
50563;SDS011;36514;52.590;21.448;2023-05-24T09:35:54;1845.65;;;878.40;;
50563;SDS011;36514;52.590;21.448;2023-05-24T09:45:45;1199.23;;;864.81;;
50563;SDS011;36514;52.590;21.448;2023-05-24T09:55:43;1220.77;;;876.92;;
50563;SDS011;36514;52.590;21.448;2023-05-24T10:05:47;1113.55;;;874.45;;
50563;SDS011;36514;52.590;21.448;2023-05-24T10:15:48;1125.25;;;866.69;;
50563;SDS011;36514;52.590;21.448;2023-05-24T10:26:12;1819.74;;;907.53;;
50563;SDS011;36514;52.590;21.448;2023-05-24T10:36:16;1444.28;;;822.46;;
50563;SDS011;36514;52.590;21.448;2023-05-24T10:45:58;1974.52;;;763.16;;
50563;SDS011;36514;52.590;21.448;2023-05-24T10:55:59;1827.25;;;852.92;;
50563;SDS011;36514;52.590;21.448;2023-05-24T11:05:52;1527.93;;;979.12;;
50563;SDS011;36514;52.590;21.448;2023-05-24T11:15:50;1365.18;;;967.58;;
50563;SDS011;36514;52.590;21.448;2023-05-24T11:25:51;1148.53;;;959.94;;
50563;SDS011;36514;52.590;21.448;2023-05-24T11:35:58;1959.96;;;985.91;;
50563;SDS011;36514;52.590;21.448;2023-05-24T11:46:02;1170.81;;;951.12;;
50563;SDS011;36514;52.590;21.448;2023-05-24T11:55:52;1653.93;;;972.11;;
50563;SDS011;36514;52.590;21.448;2023-05-24T12:05:50;1119.35;;;965.57;;
50563;SDS011;36514;52.590;21.448;2023-05-24T12:15:49;1108.09;;;959.73;;
50563;SDS011;36514;52.590;21.448;2023-05-24T12:25:48;1059.93;;;953.50;;
50563;SDS011;36514;52.590;21.448;2023-05-24T12:36:00;1011.20;;;906.52;;
50563;SDS011;36514;52.590;21.448;2023-05-24T12:45:53;1125.83;;;967.73;;
50563;SDS011;36514;52.590;21.448;2023-05-24T12:55:50;1231.62;;;974.49;;
50563;SDS011;36514;52.590;21.448;2023-05-24T13:05:49;1102.23;;;966.87;;
50563;SDS011;36514;52.590;21.448;2023-05-24T13:15:50;1074.56;;;960.45;;
50563;SDS011;36514;52.590;21.448;2023-05-24T13:25:52;1031.22;;;935.59;;
50563;SDS011;36514;52.590;21.448;2023-05-24T13:35:52;1003.40;;;911.03;;
50563;SDS011;36514;52.590;21.448;2023-05-24T13:45:54;1044.13;;;940.39;;
50563;SDS011;36514;52.590;21.448;2023-05-24T13:55:57;998.21;;;905.82;;
50563;SDS011;36514;52.590;21.448;2023-05-24T14:06:03;1037.56;;;937.34;;
50563;SDS011;36514;52.590;21.448;2023-05-24T14:16:06;1070.58;;;959.54;;
50563;SDS011;36514;52.590;21.448;2023-05-24T14:26:05;951.05;;;862.00;;
50563;SDS011;36514;52.590;21.448;2023-05-24T14:36:15;1172.82;;;954.49;;
50563;SDS011;36514;52.590;21.448;2023-05-24T14:46:26;1155.08;;;967.00;;
50563;SDS011;36514;52.590;21.448;2023-05-24T14:56:24;1237.07;;;975.02;;
50563;SDS011;36514;52.590;21.448;2023-05-24T15:06:20;1250.96;;;977.21;;
50563;SDS011;36514;52.590;21.448;2023-05-24T15:16:18;1072.87;;;963.55;;
50563;SDS011;36514;52.590;21.448;2023-05-24T15:26:18;975.81;;;886.50;;
50563;SDS011;36514;52.590;21.448;2023-05-24T15:36:21;962.78;;;879.88;;
50563;SDS011;36514;52.590;21.448;2023-05-24T15:46:24;973.47;;;886.99;;
50563;SDS011;36514;52.590;21.448;2023-05-24T15:56:26;962.29;;;877.76;;
50563;SDS011;36514;52.590;21.448;2023-05-24T16:06:31;963.37;;;879.84;;
50563;SDS011;36514;52.590;21.448;2023-05-24T16:16:35;964.63;;;882.34;;
50563;SDS011;36514;52.590;21.448;2023-05-24T16:26:40;914.62;;;840.65;;
50563;SDS011;36514;52.590;21.448;2023-05-24T16:36:44;915.50;;;840.05;;
